Terminal Aerodrome Forecast
Issued by NWS

Home | Current Version | Previous Version | Graphics & Text | Print | Product List | Glossary On
Versions: 1 2 3 4 5 6 7 8 9 10 11 12 13 14 15 16 17 18
000
FTUS43 KMPX 151403 AAA
TAFAXN
TAF AMD
KAXN 151403Z 1514/1612 29010KT 1/4SM FG OVC002
     FM151600 25012KT P6SM BKN110 OVC250
     FM152300 28008KT P6SM SCT150=

USA.gov is the U.S. government's official web portal to all federal, state and local government web resources and services.